createdAt,value
2017-12-27T00:00:21.909Z,98041
2017-12-27T00:01:27.358Z,98035
2017-12-27T00:02:32.848Z,98027
2017-12-27T00:03:38.756Z,98016
2017-12-27T00:04:44.241Z,98021
2017-12-27T00:05:49.755Z,98024
2017-12-27T00:06:55.493Z,98027
2017-12-27T00:08:00.678Z,98007
2017-12-27T00:09:06.173Z,98010
2017-12-27T00:10:11.677Z,98007
2017-12-27T00:11:17.162Z,98002
2017-12-27T00:12:22.349Z,97999
2017-12-27T00:13:28.260Z,97999
2017-12-27T00:14:32.888Z,97993
2017-12-27T00:15:38.326Z,97985
2017-12-27T00:16:43.799Z,97979
2017-12-27T00:17:48.999Z,97987
2017-12-27T00:18:54.198Z,97968
2017-12-27T00:19:59.677Z,97971
2017-12-27T00:21:04.586Z,97965
2017-12-27T00:22:10.334Z,97971
2017-12-27T00:23:15.829Z,97974
2017-12-27T00:24:21.314Z,97965
2017-12-27T00:25:26.968Z,97965
2017-12-27T00:26:32.163Z,97962
2017-12-27T00:27:37.976Z,97956
2017-12-27T00:28:43.462Z,97959
2017-12-27T00:29:48.631Z,97953
2017-12-27T00:30:54.316Z,97962
2017-12-27T00:31:59.798Z,97950
2017-12-27T00:33:05.010Z,97945
2017-12-27T00:34:10.508Z,97939
2017-12-27T00:35:15.976Z,97939
2017-12-27T00:36:21.168Z,97939
2017-12-27T00:37:26.756Z,97933
2017-12-27T00:38:32.237Z,97944
2017-12-27T00:39:38.175Z,97921
2017-12-27T00:40:43.651Z,97916
2017-12-27T00:41:49.146Z,97910
2017-12-27T00:42:54.589Z,97921
2017-12-27T00:44:00.078Z,97913
2017-12-27T00:45:05.268Z,97918
2017-12-27T00:46:10.543Z,97916
2017-12-27T00:47:16.059Z,97907
2017-12-27T00:48:21.273Z,97907
2017-12-27T00:49:26.647Z,97904
2017-12-27T00:50:31.840Z,97895
2017-12-27T00:51:37.578Z,97898
2017-12-27T00:52:43.096Z,97901
2017-12-27T00:53:48.567Z,97887
2017-12-27T00:54:54.309Z,97904
2017-12-27T00:55:59.503Z,97886
2017-12-27T00:57:04.990Z,97898
2017-12-27T00:58:10.722Z,97889
2017-12-27T00:59:16.223Z,97884
2017-12-27T01:00:21.145Z,97878
2017-12-27T01:01:26.748Z,97878
2017-12-27T01:02:31.387Z,97878
2017-12-27T01:03:36.820Z,97884
2017-12-27T01:04:42.301Z,97878
2017-12-27T01:05:47.777Z,97863
2017-12-27T01:06:53.618Z,97866
2017-12-27T01:07:59.107Z,97863
2017-12-27T01:09:04.579Z,97857
2017-12-27T01:10:10.416Z,97860
2017-12-27T01:11:15.932Z,97846
2017-12-27T01:12:21.106Z,97844
2017-12-27T01:13:26.735Z,97849
2017-12-27T01:14:31.375Z,97844
2017-12-27T01:15:36.813Z,97844
2017-12-27T01:16:41.740Z,97838
2017-12-27T01:17:47.236Z,97846
2017-12-27T01:18:53.067Z,97841
2017-12-27T01:19:58.249Z,97835
2017-12-27T01:21:03.715Z,97821
2017-12-27T01:22:09.579Z,97821
2017-12-27T01:23:15.061Z,97832
2017-12-27T01:24:20.555Z,97824
2017-12-27T01:25:26.327Z,97821
2017-12-27T01:26:31.576Z,97809
2017-12-27T01:27:37.446Z,97809
2017-12-27T01:28:42.635Z,97812
2017-12-27T01:29:48.100Z,97801
2017-12-27T01:30:52.981Z,97804
2017-12-27T01:31:58.473Z,97803
2017-12-27T01:33:03.944Z,97795
2017-12-27T01:34:09.693Z,97792
2017-12-27T01:35:14.603Z,97783
2017-12-27T01:36:19.789Z,97797
2017-12-27T01:37:25.617Z,97792
2017-12-27T01:38:30.836Z,97795
2017-12-27T01:39:35.969Z,97786
2017-12-27T01:40:41.164Z,97786
2017-12-27T01:41:46.666Z,97786
2017-12-27T01:42:52.399Z,97774
2017-12-27T01:43:57.563Z,97780
2017-12-27T01:45:02.769Z,97780
2017-12-27T01:46:08.331Z,97783
2017-12-27T01:47:13.819Z,97777
2017-12-27T01:48:19.023Z,97771
2017-12-27T01:49:24.172Z,97774
2017-12-27T01:50:29.098Z,97758
2017-12-27T01:51:35.040Z,97771
2017-12-27T01:52:40.264Z,97761
2017-12-27T01:53:45.448Z,97765
2017-12-27T01:54:51.372Z,97752
2017-12-27T01:55:56.846Z,97749
2017-12-27T01:57:02.323Z,97749
2017-12-27T01:58:07.917Z,97734
2017-12-27T01:59:13.115Z,97740
2017-12-27T02:00:18.629Z,97743
2017-12-27T02:01:24.134Z,97731
2017-12-27T02:02:28.760Z,97737
2017-12-27T02:03:34.682Z,97731
2017-12-27T02:04:40.150Z,97728
2017-12-27T02:05:45.627Z,97726
2017-12-27T02:06:51.431Z,97726
2017-12-27T02:07:56.918Z,97720
2017-12-27T02:09:01.835Z,97726
2017-12-27T02:10:07.691Z,97723
2017-12-27T02:11:13.180Z,97731
2017-12-27T02:12:18.680Z,97737
2017-12-27T02:13:24.437Z,97723
2017-12-27T02:14:29.634Z,97725
2017-12-27T02:15:35.228Z,97723
2017-12-27T02:16:39.572Z,97711
2017-12-27T02:17:44.489Z,97711
2017-12-27T02:18:50.369Z,97717
2017-12-27T02:19:56.048Z,97705
2017-12-27T02:21:01.526Z,97705
2017-12-27T02:22:07.408Z,97714
2017-12-27T02:23:12.608Z,97711
2017-12-27T02:24:18.072Z,97703
2017-12-27T02:25:23.801Z,97705
2017-12-27T02:26:28.413Z,97717
2017-12-27T02:27:34.244Z,97705
2017-12-27T02:28:39.444Z,97700
2017-12-27T02:29:44.909Z,97700
2017-12-27T02:30:50.549Z,97711
2017-12-27T02:31:55.438Z,97708
2017-12-27T02:33:00.715Z,97697
2017-12-27T02:34:06.177Z,97694
2017-12-27T02:35:11.390Z,97682
2017-12-27T02:36:16.873Z,97682
2017-12-27T02:37:22.081Z,97688
2017-12-27T02:38:27.267Z,97691
2017-12-27T02:39:33.001Z,97671
2017-12-27T02:40:38.480Z,97663
2017-12-27T02:41:43.965Z,97666
2017-12-27T02:42:49.466Z,97676
2017-12-27T02:43:54.949Z,97679
2017-12-27T02:45:00.423Z,97676
2017-12-27T02:46:05.997Z,97676
2017-12-27T02:47:10.607Z,97679
2017-12-27T02:48:15.812Z,97682
2017-12-27T02:49:21.249Z,97685
2017-12-27T02:50:26.201Z,97676
2017-12-27T02:51:31.798Z,97679
2017-12-27T02:52:37.000Z,97676
2017-12-27T02:53:42.468Z,97666
2017-12-27T02:54:48.339Z,97663
2017-12-27T02:55:53.839Z,97666
2017-12-27T02:56:59.328Z,97648
2017-12-27T02:58:04.756Z,97645
2017-12-27T02:59:10.229Z,97648
2017-12-27T03:00:15.145Z,97631
2017-12-27T03:01:20.871Z,97637
2017-12-27T03:02:25.798Z,97631
2017-12-27T03:03:31.090Z,97631
2017-12-27T03:04:36.591Z,97637
2017-12-27T03:05:42.056Z,97625
2017-12-27T03:06:48.009Z,97625
2017-12-27T03:07:53.188Z,97616
2017-12-27T03:08:58.391Z,97619
2017-12-27T03:10:03.657Z,97611
2017-12-27T03:11:09.172Z,97599
2017-12-27T03:12:14.645Z,97590
2017-12-27T03:13:20.405Z,97582
2017-12-27T03:14:25.026Z,97587
2017-12-27T03:15:30.580Z,97584
2017-12-27T03:16:36.048Z,97582
2017-12-27T03:17:41.556Z,97573
2017-12-27T03:18:47.047Z,97573
2017-12-27T03:19:52.542Z,97567
2017-12-27T03:20:57.990Z,97564
2017-12-27T03:22:03.956Z,97564
2017-12-27T03:23:09.435Z,97567
2017-12-27T03:24:14.910Z,97564
2017-12-27T03:25:20.643Z,97555
2017-12-27T03:26:25.871Z,97558
2017-12-27T03:27:31.348Z,97561
2017-12-27T03:28:36.840Z,97555
2017-12-27T03:29:42.025Z,97547
2017-12-27T03:30:47.804Z,97547
2017-12-27T03:31:52.999Z,97544
2017-12-27T03:32:58.487Z,97538
2017-12-27T03:34:04.232Z,97541
2017-12-27T03:35:09.706Z,97538
2017-12-27T03:36:15.173Z,97544
2017-12-27T03:37:20.813Z,97541
2017-12-27T03:38:25.725Z,97544
2017-12-27T03:39:31.184Z,97544
2017-12-27T03:40:36.080Z,97533
2017-12-27T03:41:41.556Z,97531
2017-12-27T03:42:46.994Z,97533
2017-12-27T03:43:52.466Z,97535
2017-12-27T03:44:57.650Z,97522
2017-12-27T03:46:03.146Z,97524
2017-12-27T03:47:08.338Z,97527
2017-12-27T03:48:13.570Z,97516
2017-12-27T03:49:18.892Z,97513
2017-12-27T03:50:24.402Z,97501
2017-12-27T03:51:29.973Z,97501
2017-12-27T03:52:34.866Z,97494
2017-12-27T03:53:40.360Z,97491
2017-12-27T03:54:46.235Z,97491
2017-12-27T03:55:51.709Z,97485
2017-12-27T03:56:56.914Z,97476
2017-12-27T03:58:02.368Z,97485
2017-12-27T03:59:07.531Z,97485
2017-12-27T04:00:13.008Z,97473
2017-12-27T04:01:18.435Z,97459
2017-12-27T04:02:23.051Z,97467
2017-12-27T04:03:28.998Z,97459
2017-12-27T04:04:34.477Z,97459
2017-12-27T04:05:39.680Z,97453
2017-12-27T04:06:45.414Z,97456
2017-12-27T04:07:50.878Z,97447
2017-12-27T04:08:55.833Z,97464
2017-12-27T04:10:01.374Z,97450
2017-12-27T04:11:06.860Z,97444
2017-12-27T04:12:12.331Z,97456
2017-12-27T04:13:17.930Z,97450
2017-12-27T04:14:22.817Z,97456
2017-12-27T04:15:28.031Z,97441
2017-12-27T04:16:33.508Z,97441
2017-12-27T04:17:38.986Z,97441
2017-12-27T04:18:44.739Z,97444
2017-12-27T04:19:50.206Z,97436
2017-12-27T04:20:55.695Z,97427
2017-12-27T04:22:01.028Z,97424
2017-12-27T04:23:06.224Z,97444
2017-12-27T04:24:11.772Z,97432
2017-12-27T04:25:17.553Z,97435
2017-12-27T04:26:22.761Z,97427
2017-12-27T04:27:27.703Z,97415
2017-12-27T04:28:33.206Z,97421
2017-12-27T04:29:38.409Z,97421
2017-12-27T04:30:44.145Z,97429
2017-12-27T04:31:49.607Z,97432
2017-12-27T04:32:55.068Z,97433
2017-12-27T04:34:00.908Z,97430
2017-12-27T04:35:06.403Z,97424
2017-12-27T04:36:11.572Z,97430
2017-12-27T04:37:17.079Z,97412
2017-12-27T04:38:22.580Z,97418
2017-12-27T04:39:28.254Z,97418
2017-12-27T04:40:33.721Z,97409
2017-12-27T04:41:39.205Z,97424
2017-12-27T04:42:44.937Z,97415
2017-12-27T04:43:50.434Z,97421
2017-12-27T04:44:55.937Z,97418
2017-12-27T04:46:01.807Z,97401
2017-12-27T04:47:07.272Z,97412
2017-12-27T04:48:12.744Z,97406
2017-12-27T04:49:18.180Z,97418
2017-12-27T04:50:22.590Z,97403
2017-12-27T04:51:28.237Z,97406
2017-12-27T04:52:33.443Z,97389
2017-12-27T04:53:38.914Z,97380
2017-12-27T04:54:44.641Z,97377
2017-12-27T04:55:49.845Z,97374
2017-12-27T04:56:55.323Z,97374
2017-12-27T04:58:01.068Z,97369
2017-12-27T04:59:06.559Z,97374
2017-12-27T05:00:12.032Z,97377
2017-12-27T05:01:17.854Z,97363
2017-12-27T05:02:23.333Z,97360
2017-12-27T05:03:29.004Z,97357
2017-12-27T05:04:34.486Z,97366
2017-12-27T05:05:39.989Z,97346
2017-12-27T05:06:45.159Z,97349
2017-12-27T05:07:50.715Z,97346
2017-12-27T05:08:56.195Z,97341
2017-12-27T05:10:01.737Z,97338
2017-12-27T05:11:06.666Z,97326
2017-12-27T05:12:11.876Z,97341
2017-12-27T05:13:17.735Z,97338
2017-12-27T05:14:23.213Z,97341
2017-12-27T05:15:28.456Z,97338
2017-12-27T05:16:33.960Z,97332
2017-12-27T05:17:39.432Z,97317
2017-12-27T05:18:45.296Z,97311
2017-12-27T05:19:50.797Z,97311
2017-12-27T05:20:56.264Z,97314
2017-12-27T05:22:01.814Z,97314
2017-12-27T05:23:06.717Z,97314
2017-12-27T05:24:11.628Z,97311
2017-12-27T05:25:17.517Z,97308
2017-12-27T05:26:23.022Z,97311
2017-12-27T05:27:28.135Z,97305
2017-12-27T05:28:32.767Z,97303
2017-12-27T05:29:37.989Z,97294
2017-12-27T05:30:43.584Z,97288
2017-12-27T05:31:49.061Z,97297
2017-12-27T05:32:54.263Z,97291
2017-12-27T05:34:00.077Z,97306
2017-12-27T05:35:05.289Z,97288
2017-12-27T05:36:10.180Z,97294
2017-12-27T05:37:15.731Z,97297
2017-12-27T05:38:20.913Z,97288
2017-12-27T05:39:26.493Z,97297
2017-12-27T05:40:31.996Z,97282
2017-12-27T05:41:37.473Z,97274
2017-12-27T05:42:43.210Z,97280
2017-12-27T05:43:48.708Z,97277
2017-12-27T05:44:53.892Z,97283
2017-12-27T05:45:59.607Z,97282
2017-12-27T05:47:05.096Z,97271
2017-12-27T05:48:10.299Z,97274
2017-12-27T05:49:15.494Z,97259
2017-12-27T05:50:20.971Z,97259
2017-12-27T05:51:26.194Z,97262
2017-12-27T05:52:31.124Z,97259
2017-12-27T05:53:36.328Z,97262
2017-12-27T05:54:42.253Z,97259
2017-12-27T05:55:47.744Z,97259
2017-12-27T05:56:53.231Z,97249
2017-12-27T05:57:59.214Z,97262
2017-12-27T05:59:04.703Z,97262
2017-12-27T06:00:10.199Z,97256
2017-12-27T06:01:15.375Z,97249
2017-12-27T06:02:20.851Z,97246
2017-12-27T06:03:26.665Z,97253
2017-12-27T06:04:32.158Z,97234
2017-12-27T06:05:37.655Z,97237
2017-12-27T06:06:43.690Z,97228
2017-12-27T06:07:48.869Z,97234
2017-12-27T06:08:54.361Z,97231
2017-12-27T06:10:00.142Z,97248
2017-12-27T06:11:05.333Z,97240
2017-12-27T06:12:10.790Z,97240
2017-12-27T06:13:16.302Z,97228
2017-12-27T06:14:21.505Z,97240
2017-12-27T06:15:26.736Z,97243
2017-12-27T06:16:32.258Z,97234
2017-12-27T06:17:37.741Z,97222
2017-12-27T06:18:43.658Z,97231
2017-12-27T06:19:49.117Z,97234
2017-12-27T06:20:54.611Z,97237
2017-12-27T06:22:00.167Z,97223
2017-12-27T06:23:05.385Z,97237
2017-12-27T06:24:10.877Z,97225
2017-12-27T06:25:16.565Z,97225
2017-12-27T06:26:22.078Z,97217
2017-12-27T06:27:27.727Z,97228
2017-12-27T06:28:33.192Z,97225
2017-12-27T06:29:38.664Z,97214
2017-12-27T06:30:44.440Z,97214
2017-12-27T06:31:49.926Z,97214
2017-12-27T06:32:55.423Z,97220
2017-12-27T06:34:01.173Z,97205
2017-12-27T06:35:06.386Z,97208
2017-12-27T06:36:11.559Z,97202
2017-12-27T06:37:16.436Z,97199
2017-12-27T06:38:21.926Z,97202
2017-12-27T06:39:27.523Z,97194
2017-12-27T06:40:33.011Z,97199
2017-12-27T06:41:38.501Z,97196
2017-12-27T06:42:44.453Z,97191
2017-12-27T06:43:49.925Z,97183
2017-12-27T06:44:55.429Z,97190
2017-12-27T06:46:01.245Z,97188
2017-12-27T06:47:06.712Z,97188
2017-12-27T06:48:12.187Z,97196
2017-12-27T06:49:17.769Z,97191
2017-12-27T06:50:22.977Z,97188
2017-12-27T06:51:27.793Z,97187
2017-12-27T06:52:32.985Z,97182
2017-12-27T06:53:38.486Z,97177
2017-12-27T06:54:44.052Z,97177
2017-12-27T06:55:49.270Z,97180
2017-12-27T06:56:54.473Z,97171
2017-12-27T06:58:00.224Z,97177
2017-12-27T06:59:05.705Z,97168
2017-12-27T07:00:10.351Z,97168
2017-12-27T07:01:16.075Z,97165
2017-12-27T07:02:21.593Z,97174
2017-12-27T07:03:26.783Z,97162
2017-12-27T07:04:32.265Z,97168
2017-12-27T07:05:37.738Z,97168
2017-12-27T07:06:43.638Z,97160
2017-12-27T07:07:48.835Z,97162
2017-12-27T07:08:54.297Z,97151
2017-12-27T07:10:00.137Z,97151
2017-12-27T07:11:05.353Z,97151
2017-12-27T07:12:10.847Z,97151
2017-12-27T07:13:16.883Z,97154
2017-12-27T07:14:22.389Z,97157
2017-12-27T07:15:27.546Z,97148
2017-12-27T07:16:33.040Z,97151
2017-12-27T07:17:38.494Z,97159
2017-12-27T07:18:44.319Z,97148
2017-12-27T07:19:49.819Z,97142
2017-12-27T07:20:55.011Z,97151
2017-12-27T07:22:00.770Z,97148
2017-12-27T07:23:05.964Z,97142
2017-12-27T07:24:11.457Z,97151
2017-12-27T07:25:16.409Z,97142
2017-12-27T07:26:21.592Z,97145
2017-12-27T07:27:27.231Z,97142
2017-12-27T07:28:32.751Z,97151
2017-12-27T07:29:38.257Z,97151
2017-12-27T07:30:44.065Z,97142
2017-12-27T07:31:49.528Z,97142
2017-12-27T07:32:55.019Z,97139
2017-12-27T07:34:00.790Z,97148
2017-12-27T07:35:06.272Z,97140
2017-12-27T07:36:11.221Z,97157
2017-12-27T07:37:17.066Z,97134
2017-12-27T07:38:22.560Z,97137
2017-12-27T07:39:27.550Z,97142
2017-12-27T07:40:32.477Z,97145
2017-12-27T07:41:37.947Z,97145
2017-12-27T07:42:43.712Z,97157
2017-12-27T07:43:49.193Z,97139
2017-12-27T07:44:54.674Z,97145
2017-12-27T07:45:59.836Z,97154
2017-12-27T07:47:05.024Z,97142
2017-12-27T07:48:10.223Z,97154
2017-12-27T07:49:15.930Z,97148
2017-12-27T07:50:20.882Z,97139
2017-12-27T07:51:26.809Z,97131
2017-12-27T07:52:32.277Z,97134
2017-12-27T07:53:37.480Z,97137
2017-12-27T07:54:43.218Z,97131
2017-12-27T07:55:48.402Z,97131
2017-12-27T07:56:53.879Z,97131
2017-12-27T07:58:00.615Z,97131
2017-12-27T07:59:05.788Z,97137
2017-12-27T08:00:11.271Z,97137
2017-12-27T08:01:17.220Z,97122
2017-12-27T08:02:22.401Z,97125
2017-12-27T08:03:27.943Z,97113
2017-12-27T08:04:33.104Z,97119
2017-12-27T08:05:38.572Z,97119
2017-12-27T08:06:44.514Z,97119
2017-12-27T08:07:50.002Z,97119
2017-12-27T08:08:55.464Z,97110
2017-12-27T08:10:00.955Z,97105
2017-12-27T08:11:05.858Z,97110
2017-12-27T08:12:11.350Z,97113
2017-12-27T08:13:17.081Z,97113
2017-12-27T08:14:22.592Z,97119
2017-12-27T08:15:28.256Z,97108
2017-12-27T08:16:33.738Z,97111
2017-12-27T08:17:39.207Z,97111
2017-12-27T08:18:45.242Z,97096
2017-12-27T08:19:50.721Z,97099
2017-12-27T08:20:56.197Z,97099
2017-12-27T08:22:01.649Z,97104
2017-12-27T08:23:07.128Z,97099
2017-12-27T08:24:12.017Z,97090
2017-12-27T08:25:17.737Z,97087
2017-12-27T08:26:22.944Z,97104
2017-12-27T08:27:28.351Z,97090
2017-12-27T08:28:33.562Z,97101
2017-12-27T08:29:38.738Z,97105
2017-12-27T08:30:44.471Z,97093
2017-12-27T08:31:49.652Z,97108
2017-12-27T08:32:55.126Z,97101
2017-12-27T08:34:00.980Z,97099
2017-12-27T08:35:06.460Z,97090
2017-12-27T08:36:11.684Z,97101
2017-12-27T08:37:17.186Z,97099
2017-12-27T08:38:22.662Z,97090
2017-12-27T08:39:28.116Z,97096
2017-12-27T08:40:33.612Z,97087
2017-12-27T08:41:38.811Z,97093
2017-12-27T08:42:44.305Z,97084
2017-12-27T08:43:49.490Z,97087
2017-12-27T08:44:54.682Z,97084
2017-12-27T08:46:00.514Z,97079
2017-12-27T08:47:05.986Z,97099
2017-12-27T08:48:10.902Z,97087
2017-12-27T08:49:16.644Z,97090
2017-12-27T08:50:22.166Z,97084
2017-12-27T08:51:27.472Z,97096
2017-12-27T08:52:32.391Z,97081
2017-12-27T08:53:37.859Z,97087
2017-12-27T08:54:43.628Z,97078
2017-12-27T08:55:49.117Z,97075
2017-12-27T08:56:54.651Z,97087
2017-12-27T08:58:00.474Z,97067
2017-12-27T08:59:05.935Z,97070
2017-12-27T09:00:11.444Z,97070
2017-12-27T09:01:16.625Z,97076
2017-12-27T09:02:22.113Z,97079
2017-12-27T09:03:27.511Z,97067
2017-12-27T09:04:32.704Z,97055
2017-12-27T09:05:38.225Z,97067
2017-12-27T09:06:44.010Z,97058
2017-12-27T09:07:48.937Z,97067
2017-12-27T09:08:54.136Z,97064
2017-12-27T09:09:59.868Z,97064
2017-12-27T09:11:05.426Z,97061
2017-12-27T09:12:10.890Z,97070
2017-12-27T09:13:16.400Z,97064
2017-12-27T09:14:21.303Z,97064
2017-12-27T09:15:27.088Z,97064
2017-12-27T09:16:32.273Z,97061
2017-12-27T09:17:37.485Z,97061
2017-12-27T09:18:43.519Z,97064
2017-12-27T09:19:49.017Z,97064
2017-12-27T09:20:54.524Z,97055
2017-12-27T09:22:00.256Z,97058
2017-12-27T09:23:05.443Z,97064
2017-12-27T09:24:10.604Z,97070
2017-12-27T09:25:16.327Z,97046
2017-12-27T09:26:21.554Z,97067
2017-12-27T09:27:27.447Z,97067
2017-12-27T09:28:32.901Z,97052
2017-12-27T09:29:38.377Z,97058
2017-12-27T09:30:44.179Z,97058
2017-12-27T09:31:49.442Z,97058
2017-12-27T09:32:54.915Z,97049
2017-12-27T09:34:00.755Z,97049
2017-12-27T09:35:06.235Z,97052
2017-12-27T09:36:11.711Z,97049
2017-12-27T09:37:16.985Z,97055
2017-12-27T09:38:22.480Z,97055
2017-12-27T09:39:27.847Z,97070
2017-12-27T09:40:33.327Z,97052
2017-12-27T09:41:38.816Z,97050
2017-12-27T09:42:44.534Z,97067
2017-12-27T09:43:49.183Z,97049
2017-12-27T09:44:54.389Z,97061
2017-12-27T09:46:00.276Z,97069
2017-12-27T09:47:05.496Z,97061
2017-12-27T09:48:10.949Z,97052
2017-12-27T09:49:16.118Z,97049
2017-12-27T09:50:21.315Z,97049
2017-12-27T09:51:27.547Z,97055
2017-12-27T09:52:33.011Z,97049
2017-12-27T09:53:38.220Z,97064
2017-12-27T09:54:44.214Z,97061
2017-12-27T09:55:49.718Z,97058
2017-12-27T09:56:55.184Z,97067
2017-12-27T09:58:01.006Z,97055
2017-12-27T09:59:06.481Z,97055
2017-12-27T10:00:11.705Z,97067
2017-12-27T10:01:17.430Z,97052
2017-12-27T10:02:21.781Z,97061
2017-12-27T10:03:27.026Z,97052
2017-12-27T10:04:32.497Z,97052
2017-12-27T10:05:37.987Z,97064
2017-12-27T10:06:43.838Z,97049
2017-12-27T10:07:49.294Z,97046
2017-12-27T10:08:53.893Z,97043
2017-12-27T10:09:59.490Z,97049
2017-12-27T10:11:04.689Z,97038
2017-12-27T10:12:09.894Z,97046
2017-12-27T10:13:15.491Z,97046
2017-12-27T10:14:20.686Z,97049
2017-12-27T10:15:26.223Z,97052
2017-12-27T10:16:31.676Z,97052
2017-12-27T10:17:37.157Z,97042
2017-12-27T10:18:42.753Z,97043
2017-12-27T10:19:48.204Z,97036
2017-12-27T10:20:53.716Z,97027
2017-12-27T10:21:59.456Z,97036
2017-12-27T10:23:04.674Z,97030
2017-12-27T10:24:09.611Z,97018
2017-12-27T10:25:15.031Z,97015
2017-12-27T10:26:20.512Z,97009
2017-12-27T10:27:26.207Z,97015
2017-12-27T10:28:31.394Z,97021
2017-12-27T10:29:36.574Z,97036
2017-12-27T10:30:41.988Z,97033
2017-12-27T10:31:47.478Z,97030
2017-12-27T10:32:52.968Z,97024
2017-12-27T10:33:58.618Z,97033
2017-12-27T10:35:04.130Z,97024
2017-12-27T10:36:09.258Z,97027
2017-12-27T10:37:15.070Z,97024
2017-12-27T10:38:20.298Z,97015
2017-12-27T10:39:25.710Z,97013
2017-12-27T10:40:31.373Z,97001
2017-12-27T10:41:36.025Z,97007
2017-12-27T10:42:42.208Z,96998
2017-12-27T10:43:47.759Z,96990
2017-12-27T10:44:53.233Z,96998
2017-12-27T10:45:58.948Z,96998
2017-12-27T10:47:04.457Z,96993
2017-12-27T10:48:09.919Z,96990
2017-12-27T10:49:15.777Z,96987
2017-12-27T10:50:21.230Z,96998
2017-12-27T10:51:26.618Z,96987
2017-12-27T10:52:32.115Z,96998
2017-12-27T10:53:37.015Z,96978
2017-12-27T10:54:42.547Z,96990
2017-12-27T10:55:47.701Z,96981
2017-12-27T10:56:53.180Z,96990
2017-12-27T10:57:58.991Z,96978
2017-12-27T10:59:04.481Z,96978
2017-12-27T11:00:10.010Z,96975
2017-12-27T11:01:15.810Z,96973
2017-12-27T11:02:21.284Z,96978
2017-12-27T11:03:27.204Z,96970
2017-12-27T11:04:32.665Z,96984
2017-12-27T11:05:38.163Z,96975
2017-12-27T11:06:43.479Z,96981
2017-12-27T11:07:48.965Z,96970
2017-12-27T11:08:54.156Z,96970
2017-12-27T11:09:59.978Z,96978
2017-12-27T11:11:05.228Z,96967
2017-12-27T11:12:10.128Z,96972
2017-12-27T11:13:15.578Z,96967
2017-12-27T11:14:20.792Z,96952
2017-12-27T11:15:26.274Z,96949
2017-12-27T11:16:31.455Z,96955
2017-12-27T11:17:36.949Z,96949
2017-12-27T11:18:42.911Z,96941
2017-12-27T11:19:48.394Z,96946
2017-12-27T11:20:53.570Z,96946
2017-12-27T11:21:59.494Z,96947
2017-12-27T11:23:04.711Z,96949
2017-12-27T11:24:09.893Z,96943
2017-12-27T11:25:15.148Z,96955
2017-12-27T11:26:20.051Z,96952
2017-12-27T11:27:40.334Z,96958
2017-12-27T11:28:45.817Z,96943
2017-12-27T11:29:51.040Z,96938
2017-12-27T11:30:56.916Z,96944
2017-12-27T11:32:02.327Z,96938
2017-12-27T11:33:07.794Z,96938
2017-12-27T11:34:12.969Z,96938
2017-12-27T11:35:18.445Z,96932
2017-12-27T11:36:23.381Z,96923
2017-12-27T11:37:29.325Z,96926
2017-12-27T11:38:33.665Z,96929
2017-12-27T11:39:39.947Z,96937
2017-12-27T11:40:45.455Z,96920
2017-12-27T11:41:50.945Z,96926
2017-12-27T11:42:56.646Z,96932
2017-12-27T11:44:01.531Z,96932
2017-12-27T11:45:06.732Z,96932
2017-12-27T11:46:12.447Z,96920
2017-12-27T11:47:17.922Z,96923
2017-12-27T11:48:22.855Z,96934
2017-12-27T11:49:43.000Z,96932
2017-12-27T11:50:48.176Z,96917
2017-12-27T11:51:53.856Z,96928
2017-12-27T11:52:59.044Z,96926
2017-12-27T11:54:04.736Z,96932
2017-12-27T11:55:10.658Z,96911
2017-12-27T11:56:16.120Z,96914
2017-12-27T11:57:21.531Z,96908
2017-12-27T11:58:27.565Z,96929
2017-12-27T11:59:32.737Z,96917
2017-12-27T12:00:38.205Z,96923
2017-12-27T12:01:43.716Z,96926
2017-12-27T12:02:49.204Z,96911
2017-12-27T12:03:55.489Z,96920
2017-12-27T12:05:00.947Z,96908
2017-12-27T12:06:06.172Z,96903
2017-12-27T12:07:11.452Z,96914
2017-12-27T12:08:16.963Z,96902
2017-12-27T12:09:22.154Z,96897
2017-12-27T12:10:27.879Z,96902
2017-12-27T12:11:33.336Z,96897
2017-12-27T12:12:38.979Z,96900
2017-12-27T12:13:44.466Z,96897
2017-12-27T12:14:49.670Z,96894
2017-12-27T12:15:55.822Z,96894
2017-12-27T12:17:01.049Z,96894
2017-12-27T12:18:06.503Z,96885
2017-12-27T12:19:11.876Z,96888
2017-12-27T12:20:17.389Z,96882
2017-12-27T12:21:22.899Z,96873
2017-12-27T12:22:43.101Z,96869
2017-12-27T12:23:48.315Z,96874
2017-12-27T12:24:53.996Z,96869
2017-12-27T12:25:59.226Z,96873
2017-12-27T12:27:04.420Z,96871
2017-12-27T12:28:09.624Z,96863
2017-12-27T12:29:15.109Z,96873
2017-12-27T12:30:20.321Z,96868
2017-12-27T12:31:40.166Z,96882
2017-12-27T12:32:45.634Z,96885
2017-12-27T12:33:51.570Z,96873
2017-12-27T12:34:56.746Z,96876
2017-12-27T12:36:02.204Z,96866
2017-12-27T12:37:08.010Z,96877
2017-12-27T12:38:13.193Z,96873
2017-12-27T12:39:18.664Z,96866
2017-12-27T12:40:24.560Z,96879
2017-12-27T12:41:29.514Z,96877
2017-12-27T12:42:34.982Z,96874
2017-12-27T12:43:40.207Z,96863
2017-12-27T12:44:45.665Z,96860
2017-12-27T12:45:51.506Z,96866
2017-12-27T12:46:57.178Z,96854
2017-12-27T12:48:02.540Z,96869
2017-12-27T12:49:08.288Z,96863
2017-12-27T12:50:12.903Z,96863
2017-12-27T12:51:18.387Z,96869
2017-12-27T12:52:23.536Z,96863
2017-12-27T12:53:28.169Z,96863
2017-12-27T12:54:33.666Z,96871
2017-12-27T12:55:39.122Z,96863
2017-12-27T12:56:44.621Z,96873
2017-12-27T12:57:50.405Z,96873
2017-12-27T12:58:55.614Z,96869
2017-12-27T13:00:00.870Z,96879
2017-12-27T13:01:06.693Z,96879
2017-12-27T13:02:11.892Z,96866
2017-12-27T13:03:17.075Z,96874
2017-12-27T13:04:22.522Z,96866
2017-12-27T13:05:27.714Z,96866
2017-12-27T13:06:33.627Z,96863
2017-12-27T13:07:39.122Z,96866
2017-12-27T13:08:43.761Z,96857
2017-12-27T13:09:49.611Z,96866
2017-12-27T13:10:54.801Z,96863
2017-12-27T13:12:00.309Z,96863
2017-12-27T13:13:05.960Z,96854
2017-12-27T13:14:11.433Z,96863
2017-12-27T13:15:16.892Z,96865
2017-12-27T13:16:22.627Z,96862
2017-12-27T13:17:28.120Z,96868
2017-12-27T13:18:33.998Z,96860
2017-12-27T13:19:39.466Z,96860
2017-12-27T13:20:44.931Z,96857
2017-12-27T13:21:50.743Z,96857
2017-12-27T13:22:56.253Z,96863
2017-12-27T13:24:01.730Z,96851
2017-12-27T13:25:07.498Z,96845
2017-12-27T13:26:12.713Z,96854
2017-12-27T13:27:17.650Z,96854
2017-12-27T13:28:23.164Z,96854
2017-12-27T13:29:28.068Z,96845
2017-12-27T13:30:34.284Z,96839
2017-12-27T13:31:39.755Z,96845
2017-12-27T13:32:45.220Z,96833
2017-12-27T13:33:50.803Z,96836
2017-12-27T13:34:56.005Z,96839
2017-12-27T13:36:01.190Z,96836
2017-12-27T13:37:06.968Z,96839
2017-12-27T13:38:11.893Z,96836
2017-12-27T13:39:17.370Z,96842
2017-12-27T13:40:22.647Z,96830
2017-12-27T13:41:27.878Z,96825
2017-12-27T13:42:33.323Z,96830
2017-12-27T13:43:38.818Z,96824
2017-12-27T13:44:43.712Z,96830
2017-12-27T13:45:49.638Z,96830
2017-12-27T13:46:55.143Z,96833
2017-12-27T13:48:00.664Z,96836
2017-12-27T13:49:05.865Z,96847
2017-12-27T13:50:11.346Z,96836
2017-12-27T13:51:16.817Z,96839
2017-12-27T13:52:22.381Z,96841
2017-12-27T13:53:27.883Z,96838
2017-12-27T13:54:33.846Z,96838
2017-12-27T13:55:39.340Z,96835
2017-12-27T13:56:44.854Z,96844
2017-12-27T13:57:50.608Z,96832
2017-12-27T13:58:55.552Z,96830
2017-12-27T14:00:00.755Z,96844
2017-12-27T14:01:05.970Z,96849
2017-12-27T14:02:11.178Z,96849
2017-12-27T14:03:16.649Z,96835